Time;durP1;ratioP1;P1;durP2;ratioP2;P2;SDS_P1;SDS_P2;PMS_P1;PMS_P2;Temp;Humidity;BMP_temperature;BMP_pressure;BME280_temperature;BME280_humidity;BME280_pressure;Samples;Min_cycle;Max_cycle;Signal;HPM_P1;HPM_P2
2023/07/09 00:02:10;;;;;;;;;;;27.40;52.20;;;;;;4994970;28;20365;-79
2023/07/09 00:04:36;;;;;;;;;;;27.30;52.20;;;;;;4997552;28;19929;-79
2023/07/09 00:07:04;;;;;;;;;;;27.30;52.30;;;;;;5003942;28;20047;-79
2023/07/09 00:09:30;;;;;;;;;;;27.30;52.40;;;;;;5000378;28;19929;-79
2023/07/09 00:11:57;;;;;;;;;;;27.20;52.40;;;;;;5000844;28;20003;-79
2023/07/09 00:14:25;;;;;;;;;;;27.20;52.50;;;;;;4997476;28;20016;-79
2023/07/09 00:16:51;;;;;;;;;;;27.20;52.60;;;;;;4983504;28;19934;-79
2023/07/09 00:19:19;;;;;;;;;;;27.10;52.70;;;;;;4987096;28;20005;-79
2023/07/09 00:21:46;;;;;;;;;;;27.10;52.70;;;;;;4984209;28;19929;-79
2023/07/09 00:24:13;;;;;;;;;;;27.00;52.80;;;;;;4983467;28;20598;-79
2023/07/09 00:26:40;;;;;;;;;;;27.00;52.90;;;;;;4983868;28;19933;-79
2023/07/09 00:29:09;;;;;;;;;;;27.00;53.00;;;;;;4983737;28;19930;-79
2023/07/09 00:31:38;;;;;;;;;;;26.90;53.00;;;;;;4980634;28;19934;-79
2023/07/09 00:34:05;;;;;;;;;;;26.90;53.20;;;;;;4982138;28;20687;-79
2023/07/09 00:36:32;;;;;;;;;;;26.90;53.20;;;;;;4982463;28;19961;-79
2023/07/09 00:39:00;;;;;;;;;;;26.80;53.20;;;;;;4984169;28;20004;-79
2023/07/09 00:41:28;;;;;;;;;;;26.80;53.20;;;;;;4982898;28;19930;-79
2023/07/09 00:43:54;;;;;;;;;;;26.70;53.30;;;;;;4983086;28;20161;-79
2023/07/09 00:46:40;;;;;;;;;;;26.70;53.40;;;;;;4991044;28;19933;-79
2023/07/09 00:49:10;;;;;;;;;;;26.60;53.40;;;;;;5001619;28;19983;-79
2023/07/09 00:51:41;;;;;;;;;;;26.60;53.50;;;;;;5005270;28;20040;-79
2023/07/09 00:54:14;;;;;;;;;;;26.50;53.60;;;;;;5003371;28;19933;-79
2023/07/09 00:56:44;;;;;;;;;;;26.50;53.60;;;;;;5003021;28;19933;-79
2023/07/09 00:59:13;;;;;;;;;;;26.50;53.70;;;;;;5002569;28;20036;-79
2023/07/09 01:01:40;;;;;;;;;;;26.50;53.80;;;;;;4990960;28;19930;-79
2023/07/09 01:04:09;;;;;;;;;;;26.40;53.90;;;;;;4984739;28;19937;-79
2023/07/09 01:06:38;;;;;;;;;;;26.40;54.00;;;;;;4983878;28;20000;-79
2023/07/09 01:09:05;;;;;;;;;;;26.30;54.00;;;;;;4983674;28;19945;-78
2023/07/09 01:11:31;;;;;;;;;;;26.30;54.10;;;;;;4988350;28;19937;-79
2023/07/09 01:14:00;;;;;;;;;;;26.30;54.20;;;;;;4982850;28;19934;-79
2023/07/09 01:16:28;;;;;;;;;;;26.20;54.20;;;;;;4981027;28;20417;-78
2023/07/09 01:18:55;;;;;;;;;;;26.20;54.30;;;;;;4983052;28;19930;-79
2023/07/09 01:21:23;;;;;;;;;;;26.20;54.40;;;;;;4983100;28;19929;-79
2023/07/09 01:23:52;;;;;;;;;;;26.10;54.40;;;;;;4980082;28;19996;-80
2023/07/09 01:26:20;;;;;;;;;;;26.10;54.50;;;;;;4985496;28;19930;-79
2023/07/09 01:28:48;;;;;;;;;;;26.10;54.60;;;;;;4983136;28;20361;-79
2023/07/09 01:31:16;;;;;;;;;;;26.10;54.60;;;;;;4986118;28;19969;-79
2023/07/09 01:33:44;;;;;;;;;;;26.00;54.70;;;;;;4987199;28;19984;-79
2023/07/09 01:36:13;;;;;;;;;;;26.00;54.80;;;;;;4985830;28;19933;-79
2023/07/09 01:38:41;;;;;;;;;;;25.90;54.80;;;;;;4983044;28;20008;-79
2023/07/09 01:41:07;;;;;;;;;;;25.90;54.90;;;;;;4981458;28;19937;-79
2023/07/09 01:43:34;;;;;;;;;;;25.90;55.00;;;;;;4980174;28;19934;-79
2023/07/09 01:46:01;;;;;;;;;;;25.90;55.00;;;;;;4984118;28;19930;-79
2023/07/09 01:48:28;;;;;;;;;;;25.90;55.10;;;;;;4986549;28;19933;-79
2023/07/09 01:50:55;;;;;;;;;;;25.80;55.20;;;;;;4982490;28;19929;-79
2023/07/09 01:53:26;;;;;;;;;;;25.80;55.20;;;;;;4980288;28;19937;-79
2023/07/09 01:55:55;;;;;;;;;;;25.70;55.30;;;;;;4981787;28;20783;-79
2023/07/09 01:58:24;;;;;;;;;;;25.70;55.40;;;;;;4981484;28;19929;-78
2023/07/09 02:00:51;;;;;;;;;;;25.60;55.40;;;;;;4981596;28;19930;-79
2023/07/09 02:03:17;;;;;;;;;;;25.60;55.40;;;;;;4984669;28;19942;-79
2023/07/09 02:05:44;;;;;;;;;;;25.60;55.50;;;;;;4982685;28;20033;-79
2023/07/09 02:08:10;;;;;;;;;;;25.60;55.60;;;;;;4982273;28;19952;-79
2023/07/09 02:10:37;;;;;;;;;;;25.60;55.70;;;;;;4981631;28;20465;-79
2023/07/09 02:13:05;;;;;;;;;;;25.50;55.70;;;;;;4980047;28;19988;-79
2023/07/09 02:15:31;;;;;;;;;;;25.50;55.80;;;;;;4980480;28;20521;-79
2023/07/09 02:17:58;;;;;;;;;;;25.40;55.80;;;;;;4982315;28;19989;-79
2023/07/09 02:20:26;;;;;;;;;;;25.40;55.90;;;;;;4981973;28;20561;-79
2023/07/09 02:22:52;;;;;;;;;;;25.30;56.00;;;;;;4980961;28;19940;-79
2023/07/09 02:25:19;;;;;;;;;;;25.30;56.20;;;;;;4980255;28;19963;-79
2023/07/09 02:27:45;;;;;;;;;;;25.30;56.30;;;;;;4981881;28;19934;-79
2023/07/09 02:30:13;;;;;;;;;;;25.20;56.30;;;;;;4971457;28;19997;-78
2023/07/09 02:32:41;;;;;;;;;;;25.20;56.30;;;;;;4981265;28;19934;-79
2023/07/09 02:35:08;;;;;;;;;;;25.20;56.40;;;;;;4977060;28;19969;-79
2023/07/09 02:37:35;;;;;;;;;;;25.20;56.50;;;;;;4980730;28;19930;-80
2023/07/09 02:40:01;;;;;;;;;;;25.10;56.50;;;;;;4982693;28;19952;-79
2023/07/09 02:42:28;;;;;;;;;;;25.10;56.60;;;;;;4979124;28;19941;-78
2023/07/09 02:44:54;;;;;;;;;;;25.10;56.60;;;;;;4974395;28;19929;-79
2023/07/09 02:47:22;;;;;;;;;;;25.00;56.70;;;;;;4997587;28;19929;-79
2023/07/09 02:49:49;;;;;;;;;;;25.00;56.80;;;;;;4998048;28;19944;-80
2023/07/09 02:52:15;;;;;;;;;;;25.00;56.90;;;;;;4999416;28;19933;-79
2023/07/09 02:54:42;;;;;;;;;;;24.90;56.80;;;;;;4999532;28;19937;-79
2023/07/09 02:57:08;;;;;;;;;;;24.90;56.90;;;;;;5000058;28;19929;-79
2023/07/09 02:59:35;;;;;;;;;;;24.90;57.00;;;;;;4998132;28;19933;-79
2023/07/09 03:02:01;;;;;;;;;;;24.90;57.10;;;;;;4981486;28;19937;-78
2023/07/09 03:04:31;;;;;;;;;;;24.80;57.10;;;;;;4976425;28;19929;-78
2023/07/09 03:06:57;;;;;;;;;;;24.80;57.10;;;;;;4981577;28;19930;-79
2023/07/09 03:09:24;;;;;;;;;;;24.80;57.20;;;;;;4979044;28;19976;-79
2023/07/09 03:11:50;;;;;;;;;;;24.70;57.20;;;;;;4980808;28;19991;-79
2023/07/09 03:14:17;;;;;;;;;;;24.80;57.30;;;;;;4980870;28;20876;-79
2023/07/09 03:16:44;;;;;;;;;;;24.70;57.30;;;;;;4980184;28;19933;-80
2023/07/09 03:19:11;;;;;;;;;;;24.70;57.40;;;;;;4981509;28;19930;-79
2023/07/09 03:21:39;;;;;;;;;;;24.70;57.50;;;;;;4978406;28;19984;-80
2023/07/09 03:24:06;;;;;;;;;;;24.60;57.50;;;;;;4979045;28;19930;-79
2023/07/09 03:26:32;;;;;;;;;;;24.60;57.60;;;;;;4983382;28;20338;-79
2023/07/09 03:28:59;;;;;;;;;;;24.50;57.60;;;;;;4980695;28;20590;-80
2023/07/09 03:31:25;;;;;;;;;;;24.60;57.60;;;;;;4984253;28;19941;-80
2023/07/09 03:33:52;;;;;;;;;;;24.50;57.60;;;;;;4981389;28;19950;-79
2023/07/09 03:36:19;;;;;;;;;;;24.50;57.70;;;;;;4979023;28;19929;-79
2023/07/09 03:38:48;;;;;;;;;;;24.50;57.80;;;;;;4980885;28;19929;-79
2023/07/09 03:41:14;;;;;;;;;;;24.50;57.90;;;;;;4980909;28;19934;-80
2023/07/09 03:43:41;;;;;;;;;;;24.40;57.90;;;;;;4979027;28;19969;-80
2023/07/09 03:46:07;;;;;;;;;;;24.40;57.90;;;;;;4988903;28;20401;-79
2023/07/09 03:48:34;;;;;;;;;;;24.30;58.00;;;;;;4999647;28;19930;-79
2023/07/09 03:51:00;;;;;;;;;;;24.30;58.10;;;;;;4999361;28;19956;-78
2023/07/09 03:53:27;;;;;;;;;;;24.30;58.10;;;;;;4998982;28;19929;-79
2023/07/09 03:55:56;;;;;;;;;;;24.30;58.20;;;;;;5001680;28;20529;-80
2023/07/09 03:58:22;;;;;;;;;;;24.30;58.20;;;;;;5002590;28;19983;-79
2023/07/09 04:00:49;;;;;;;;;;;24.20;58.30;;;;;;5000248;28;19940;-80
2023/07/09 04:03:15;;;;;;;;;;;24.20;58.30;;;;;;4999628;28;20491;-80
2023/07/09 04:05:42;;;;;;;;;;;24.20;58.30;;;;;;4999070;28;20009;-79
2023/07/09 04:08:08;;;;;;;;;;;24.20;58.40;;;;;;4998873;28;20353;-80
2023/07/09 04:10:35;;;;;;;;;;;24.20;58.40;;;;;;4998927;28;19930;-80
2023/07/09 04:13:03;;;;;;;;;;;24.10;58.40;;;;;;4998558;28;20295;-80
2023/07/09 04:15:30;;;;;;;;;;;24.10;58.50;;;;;;4996470;28;19937;-79
2023/07/09 04:17:56;;;;;;;;;;;24.10;58.60;;;;;;4981618;28;19929;-79
2023/07/09 04:20:23;;;;;;;;;;;24.00;58.50;;;;;;4980905;28;19934;-78
2023/07/09 04:22:49;;;;;;;;;;;24.00;58.60;;;;;;4978695;28;20764;-80
2023/07/09 04:25:16;;;;;;;;;;;24.00;58.60;;;;;;4972660;28;19934;-80
2023/07/09 04:27:43;;;;;;;;;;;24.00;58.70;;;;;;4980475;28;19940;-79
2023/07/09 04:30:12;;;;;;;;;;;24.00;58.80;;;;;;4980410;28;19934;-80
2023/07/09 04:32:38;;;;;;;;;;;24.00;58.90;;;;;;4979247;28;20764;-80
2023/07/09 04:35:06;;;;;;;;;;;23.90;58.90;;;;;;4979855;28;19930;-79
2023/07/09 04:37:33;;;;;;;;;;;23.90;59.00;;;;;;4980896;28;19976;-79
2023/07/09 04:39:59;;;;;;;;;;;23.90;59.10;;;;;;4980017;28;19930;-79
2023/07/09 04:42:26;;;;;;;;;;;23.80;59.10;;;;;;4978622;28;19979;-80
2023/07/09 04:44:52;;;;;;;;;;;23.80;59.20;;;;;;4979692;28;19930;-80
2023/07/09 04:47:20;;;;;;;;;;;23.80;59.30;;;;;;4981962;28;19985;-79
2023/07/09 04:49:46;;;;;;;;;;;23.80;59.40;;;;;;4984414;28;20394;-80
2023/07/09 04:52:14;;;;;;;;;;;23.80;59.40;;;;;;4980774;28;19988;-79
2023/07/09 04:54:43;;;;;;;;;;;23.70;59.40;;;;;;4980730;28;19977;-79
2023/07/09 04:57:09;;;;;;;;;;;23.80;59.50;;;;;;4979208;28;19930;-80
2023/07/09 04:59:36;;;;;;;;;;;23.70;59.50;;;;;;4980379;28;19926;-79
2023/07/09 05:02:03;;;;;;;;;;;23.70;59.60;;;;;;4985023;28;19940;-80
2023/07/09 05:04:31;;;;;;;;;;;23.70;59.70;;;;;;4992634;28;20020;-79
2023/07/09 05:06:58;;;;;;;;;;;23.70;59.80;;;;;;5003778;28;20025;-79
2023/07/09 05:09:24;;;;;;;;;;;23.70;59.90;;;;;;5001600;28;19934;-79
2023/07/09 05:11:51;;;;;;;;;;;23.60;59.90;;;;;;5003204;28;20535;-82
2023/07/09 05:14:18;;;;;;;;;;;23.70;60.00;;;;;;5003071;28;19935;-80
2023/07/09 05:16:45;;;;;;;;;;;23.60;59.90;;;;;;4988886;28;19929;-83
2023/07/09 05:19:11;;;;;;;;;;;23.60;60.00;;;;;;4982445;28;19933;-82
2023/07/09 05:21:39;;;;;;;;;;;23.60;60.00;;;;;;4983928;28;20000;-82
2023/07/09 05:24:06;;;;;;;;;;;23.60;60.10;;;;;;4977985;28;19933;-80
2023/07/09 05:26:33;;;;;;;;;;;23.60;60.30;;;;;;4983662;28;19985;-82
2023/07/09 05:28:59;;;;;;;;;;;23.60;60.50;;;;;;4986811;28;20391;-82
2023/07/09 05:31:26;;;;;;;;;;;23.60;60.60;;;;;;4985621;28;19930;-82
2023/07/09 05:33:52;;;;;;;;;;;23.60;60.70;;;;;;4985663;28;19996;-82
2023/07/09 05:36:19;;;;;;;;;;;23.60;60.90;;;;;;4984560;28;19934;-84
2023/07/09 05:38:47;;;;;;;;;;;23.60;61.10;;;;;;4983032;28;19944;-83
2023/07/09 05:41:16;;;;;;;;;;;23.60;61.30;;;;;;4984651;28;19936;-84
2023/07/09 05:43:44;;;;;;;;;;;23.60;61.40;;;;;;4984728;28;19926;-82
2023/07/09 05:46:10;;;;;;;;;;;23.60;61.50;;;;;;4991864;28;19955;-82
2023/07/09 05:48:37;;;;;;;;;;;23.60;61.40;;;;;;5001360;28;20590;-82
2023/07/09 05:51:03;;;;;;;;;;;23.60;61.40;;;;;;5000633;28;19933;-82
2023/07/09 05:53:31;;;;;;;;;;;23.60;61.40;;;;;;5000943;28;19941;-81
2023/07/09 05:55:59;;;;;;;;;;;23.60;61.50;;;;;;5001456;28;20020;-82
2023/07/09 05:58:26;;;;;;;;;;;23.60;61.50;;;;;;5002578;28;19960;-81
2023/07/09 06:00:53;;;;;;;;;;;23.60;61.40;;;;;;4994551;28;19934;-82
2023/07/09 06:03:20;;;;;;;;;;;23.60;61.50;;;;;;4981046;28;20012;-82
2023/07/09 06:05:48;;;;;;;;;;;23.70;61.50;;;;;;4984348;28;19929;-81
2023/07/09 06:08:14;;;;;;;;;;;23.70;61.60;;;;;;4980193;28;19934;-83
2023/07/09 06:10:41;;;;;;;;;;;23.70;61.70;;;;;;4983644;28;19930;-82
2023/07/09 06:13:09;;;;;;;;;;;23.70;61.70;;;;;;4985071;28;19984;-82
2023/07/09 06:15:36;;;;;;;;;;;23.70;61.50;;;;;;4982354;28;19992;-82
2023/07/09 06:18:02;;;;;;;;;;;23.70;61.60;;;;;;4983072;28;20000;-82
2023/07/09 06:20:29;;;;;;;;;;;23.70;61.70;;;;;;4983816;28;19934;-80
2023/07/09 06:22:55;;;;;;;;;;;23.70;61.60;;;;;;4984544;28;19988;-82
2023/07/09 06:25:22;;;;;;;;;;;23.70;61.60;;;;;;4983329;28;19930;-81
2023/07/09 06:27:48;;;;;;;;;;;23.70;61.70;;;;;;4982376;28;20565;-81
2023/07/09 06:30:19;;;;;;;;;;;23.80;61.70;;;;;;4981310;28;19934;-81
2023/07/09 06:32:45;;;;;;;;;;;23.80;61.80;;;;;;4984655;28;19964;-82
2023/07/09 06:35:12;;;;;;;;;;;23.80;61.70;;;;;;4976253;28;19937;-81
2023/07/09 06:37:38;;;;;;;;;;;23.80;62.50;;;;;;4978636;28;19930;-82
2023/07/09 06:40:08;;;;;;;;;;;23.80;62.30;;;;;;4982590;28;19991;-81
2023/07/09 06:42:36;;;;;;;;;;;23.80;62.60;;;;;;4979628;28;19936;-82
2023/07/09 06:45:04;;;;;;;;;;;23.80;62.50;;;;;;4979904;28;20236;-81
2023/07/09 06:47:32;;;;;;;;;;;23.90;62.70;;;;;;5000257;28;20019;-81
2023/07/09 06:49:58;;;;;;;;;;;23.90;62.40;;;;;;5001623;28;19937;-81
2023/07/09 06:52:25;;;;;;;;;;;23.90;62.20;;;;;;4999571;28;20697;-80
2023/07/09 06:54:51;;;;;;;;;;;23.90;62.40;;;;;;4997051;28;19929;-82
2023/07/09 06:57:18;;;;;;;;;;;23.90;62.70;;;;;;5002389;28;19933;-82
2023/07/09 06:59:44;;;;;;;;;;;23.90;63.00;;;;;;5001269;28;20308;-82
2023/07/09 07:02:11;;;;;;;;;;;24.00;63.00;;;;;;4999399;28;19930;-82
2023/07/09 07:04:39;;;;;;;;;;;24.00;63.40;;;;;;4999085;28;19976;-82
2023/07/09 07:07:06;;;;;;;;;;;24.00;63.30;;;;;;4999315;28;20003;-83
2023/07/09 07:09:32;;;;;;;;;;;24.00;63.30;;;;;;4999396;28;19979;-82
2023/07/09 07:11:59;;;;;;;;;;;24.00;63.30;;;;;;4997816;28;19929;-82
2023/07/09 07:14:25;;;;;;;;;;;24.00;63.40;;;;;;4998663;28;19929;-82
2023/07/09 07:16:52;;;;;;;;;;;24.10;63.60;;;;;;4997846;28;19930;-86
2023/07/09 07:19:19;;;;;;;;;;;24.10;63.80;;;;;;4997262;28;19930;-86
2023/07/09 07:21:47;;;;;;;;;;;24.10;63.30;;;;;;5000597;28;19929;-86
2023/07/09 07:24:13;;;;;;;;;;;24.20;63.10;;;;;;4998838;28;19965;-86
2023/07/09 07:26:40;;;;;;;;;;;24.20;63.90;;;;;;4998783;28;19960;-86
2023/07/09 07:29:06;;;;;;;;;;;24.20;63.30;;;;;;4998637;28;19933;-86
2023/07/09 07:31:33;;;;;;;;;;;24.20;63.40;;;;;;4986992;28;19988;-86
2023/07/09 07:33:59;;;;;;;;;;;24.20;63.20;;;;;;4976944;28;20367;-86
2023/07/09 07:36:26;;;;;;;;;;;24.20;63.20;;;;;;4983554;28;19929;-86
2023/07/09 07:38:54;;;;;;;;;;;24.30;63.20;;;;;;4980202;28;19930;-87
2023/07/09 07:41:20;;;;;;;;;;;24.30;62.90;;;;;;4976442;28;19929;-86
2023/07/09 07:43:47;;;;;;;;;;;24.30;62.70;;;;;;4979683;28;20552;-87
2023/07/09 07:46:13;;;;;;;;;;;24.40;62.50;;;;;;4979357;28;19939;-86
2023/07/09 07:48:40;;;;;;;;;;;24.40;62.40;;;;;;4979269;28;19934;-86
2023/07/09 07:51:07;;;;;;;;;;;24.50;62.40;;;;;;4978169;28;19936;-86
2023/07/09 07:53:34;;;;;;;;;;;24.40;62.30;;;;;;4978437;28;19934;-86
2023/07/09 07:56:02;;;;;;;;;;;24.50;62.10;;;;;;4980771;28;19930;-88
2023/07/09 07:58:29;;;;;;;;;;;24.50;62.00;;;;;;4979968;28;19981;-86
2023/07/09 08:00:56;;;;;;;;;;;24.60;62.00;;;;;;4982610;28;19929;-87
2023/07/09 08:03:23;;;;;;;;;;;24.60;61.70;;;;;;4981074;28;20418;-87
2023/07/09 08:05:49;;;;;;;;;;;24.60;61.60;;;;;;4979184;28;19930;-87
2023/07/09 08:08:16;;;;;;;;;;;24.60;61.60;;;;;;4980169;28;19938;-87
2023/07/09 08:10:42;;;;;;;;;;;24.70;61.80;;;;;;4984185;28;19929;-88
2023/07/09 08:13:10;;;;;;;;;;;24.70;61.60;;;;;;4977792;28;20006;-89
2023/07/09 08:15:37;;;;;;;;;;;24.70;61.60;;;;;;4977698;28;19929;-88
2023/07/09 08:18:03;;;;;;;;;;;24.80;61.60;;;;;;4978043;28;20326;-87
2023/07/09 08:20:32;;;;;;;;;;;24.90;61.50;;;;;;4984926;28;19976;-89
2023/07/09 08:22:59;;;;;;;;;;;25.00;61.60;;;;;;4977277;28;19980;-86
2023/07/09 08:25:25;;;;;;;;;;;25.50;59.40;;;;;;4975006;28;19934;-85
2023/07/09 08:27:52;;;;;;;;;;;25.60;59.20;;;;;;4987424;28;19933;-85
2023/07/09 08:30:20;;;;;;;;;;;25.60;59.20;;;;;;4980759;28;20445;-85
2023/07/09 08:32:47;;;;;;;;;;;25.60;59.20;;;;;;4979445;28;19965;-85
2023/07/09 08:35:15;;;;;;;;;;;25.60;59.40;;;;;;4981479;28;20661;-85
2023/07/09 08:37:41;;;;;;;;;;;25.50;59.50;;;;;;4980293;28;19930;-85
2023/07/09 08:40:12;;;;;;;;;;;25.50;59.70;;;;;;4987690;28;19930;-86
2023/07/09 08:42:42;;;;;;;;;;;25.40;59.90;;;;;;4984161;28;19951;-85
2023/07/09 08:45:15;;;;;;;;;;;25.40;59.90;;;;;;4985175;28;19929;-84
2023/07/09 08:47:46;;;;;;;;;;;25.40;59.90;;;;;;4986306;28;20540;-85
2023/07/09 08:50:14;;;;;;;;;;;25.40;60.00;;;;;;4983182;28;19930;-85
2023/07/09 08:52:42;;;;;;;;;;;25.40;60.00;;;;;;4991463;28;19995;-84
2023/07/09 08:55:11;;;;;;;;;;;25.50;60.00;;;;;;4984415;28;19929;-85
2023/07/09 08:57:39;;;;;;;;;;;25.50;60.00;;;;;;4983537;28;19937;-84
2023/07/09 09:00:12;;;;;;;;;;;25.50;59.90;;;;;;4979658;28;19937;-84
2023/07/09 09:02:43;;;;;;;;;;;25.60;60.00;;;;;;5005906;23;19929;-74
2023/07/09 09:05:11;;;;;;;;;;;25.60;60.00;;;;;;4989523;28;19957;-74
2023/07/09 09:07:40;;;;;;;;;;;25.70;59.90;;;;;;4994020;28;19929;-74
2023/07/09 09:10:11;;;;;;;;;;;25.70;59.90;;;;;;4988279;28;20013;-74
2023/07/09 09:12:39;;;;;;;;;;;25.80;59.80;;;;;;4985423;28;19948;-74
2023/07/09 09:15:11;;;;;;;;;;;25.80;59.80;;;;;;4981839;28;19930;-73
2023/07/09 09:17:40;;;;;;;;;;;25.90;59.70;;;;;;5002012;28;19960;-73
2023/07/09 09:20:09;;;;;;;;;;;25.90;59.70;;;;;;5008748;28;19956;-73
2023/07/09 09:22:41;;;;;;;;;;;25.90;59.60;;;;;;5007113;28;19980;-73
2023/07/09 09:25:16;;;;;;;;;;;26.00;59.50;;;;;;5005918;28;19933;-75
2023/07/09 09:27:43;;;;;;;;;;;26.00;59.40;;;;;;5004228;28;19933;-73
2023/07/09 09:30:12;;;;;;;;;;;26.10;59.30;;;;;;5004213;28;20007;-74
2023/07/09 09:32:43;;;;;;;;;;;26.10;59.20;;;;;;5007684;28;19944;-73
2023/07/09 09:35:13;;;;;;;;;;;26.20;59.10;;;;;;5006266;28;19929;-74
2023/07/09 09:37:41;;;;;;;;;;;26.30;58.90;;;;;;4996901;28;19930;-73
2023/07/09 09:40:09;;;;;;;;;;;26.30;58.70;;;;;;5007944;28;19929;-74
2023/07/09 09:42:36;;;;;;;;;;;26.40;58.60;;;;;;5003557;28;19929;-75
2023/07/09 09:45:03;;;;;;;;;;;26.40;57.70;;;;;;5007320;28;19934;-73
2023/07/09 09:47:30;;;;;;;;;;;26.50;57.70;;;;;;5007203;28;20353;-73
2023/07/09 09:49:56;;;;;;;;;;;26.60;57.60;;;;;;5007195;28;20394;-75
2023/07/09 09:52:27;;;;;;;;;;;26.60;57.50;;;;;;5009487;28;19980;-75
2023/07/09 09:54:56;;;;;;;;;;;26.70;57.40;;;;;;5010350;28;20361;-73
2023/07/09 09:57:23;;;;;;;;;;;26.70;57.30;;;;;;5007894;28;19977;-74
2023/07/09 09:59:50;;;;;;;;;;;26.80;56.80;;;;;;5006458;28;19934;-76
2023/07/09 10:02:18;;;;;;;;;;;26.90;56.60;;;;;;5001594;28;19933;-73
2023/07/09 10:04:45;;;;;;;;;;;27.00;56.50;;;;;;5007384;28;19929;-74
2023/07/09 10:07:15;;;;;;;;;;;27.00;56.30;;;;;;5008107;28;19929;-73
2023/07/09 10:09:47;;;;;;;;;;;27.10;56.30;;;;;;5006966;28;19935;-74
2023/07/09 10:12:19;;;;;;;;;;;27.20;55.90;;;;;;5008333;28;19984;-74
2023/07/09 10:14:48;;;;;;;;;;;27.30;55.70;;;;;;5000814;28;20279;-74
2023/07/09 10:17:19;;;;;;;;;;;27.40;55.60;;;;;;5001940;28;19933;-74
2023/07/09 10:19:49;;;;;;;;;;;27.50;55.40;;;;;;5012951;28;19926;-74
2023/07/09 10:22:21;;;;;;;;;;;27.50;55.30;;;;;;5004839;28;19976;-74
2023/07/09 10:24:53;;;;;;;;;;;27.60;55.00;;;;;;5007736;28;19925;-74
2023/07/09 10:27:26;;;;;;;;;;;27.70;54.70;;;;;;5005561;28;20477;-73
2023/07/09 10:30:00;;;;;;;;;;;27.80;54.50;;;;;;5006557;28;19936;-73
2023/07/09 10:32:32;;;;;;;;;;;27.90;54.30;;;;;;5003315;28;19936;-74
2023/07/09 10:35:01;;;;;;;;;;;28.00;54.10;;;;;;5006594;28;19936;-74
2023/07/09 10:37:49;;;;;;;;;;;28.00;53.80;;;;;;5005789;28;20034;-74
2023/07/09 10:40:17;;;;;;;;;;;28.10;53.70;;;;;;5000988;28;19930;-74
2023/07/09 10:42:47;;;;;;;;;;;28.20;53.60;;;;;;5006385;28;19933;-73
2023/07/09 10:45:16;;;;;;;;;;;28.30;53.30;;;;;;5005461;28;19933;-74
2023/07/09 10:47:44;;;;;;;;;;;28.40;52.80;;;;;;5002187;28;20512;-73
2023/07/09 10:50:15;;;;;;;;;;;28.50;52.80;;;;;;5005959;28;20646;-73
2023/07/09 10:52:44;;;;;;;;;;;28.60;52.80;;;;;;5011269;28;19938;-74
2023/07/09 10:55:16;;;;;;;;;;;28.60;52.60;;;;;;5005109;28;20423;-74
2023/07/09 10:57:45;;;;;;;;;;;28.70;52.50;;;;;;5008591;28;19929;-73
2023/07/09 11:00:13;;;;;;;;;;;28.80;52.40;;;;;;5003990;28;19952;-73
2023/07/09 11:02:43;;;;;;;;;;;28.80;52.10;;;;;;5004794;28;19937;-73
2023/07/09 11:05:10;;;;;;;;;;;29.00;52.00;;;;;;5008025;28;19979;-74
2023/07/09 11:07:39;;;;;;;;;;;29.00;51.70;;;;;;5007420;28;19976;-74
2023/07/09 11:10:08;;;;;;;;;;;29.10;51.40;;;;;;5007439;28;19936;-73
2023/07/09 11:12:37;;;;;;;;;;;29.20;51.30;;;;;;5005259;28;19976;-74
2023/07/09 11:15:05;;;;;;;;;;;29.30;51.20;;;;;;5002016;28;20345;-74
2023/07/09 11:17:33;;;;;;;;;;;29.30;50.90;;;;;;5002909;28;19929;-74
2023/07/09 11:20:07;;;;;;;;;;;29.40;50.80;;;;;;5004840;28;19934;-74
2023/07/09 11:22:37;;;;;;;;;;;29.50;50.70;;;;;;5006678;28;19933;-73
2023/07/09 11:25:08;;;;;;;;;;;29.60;50.60;;;;;;5003527;28;19971;-74
2023/07/09 11:27:45;;;;;;;;;;;29.60;50.50;;;;;;4998655;28;20299;-73
2023/07/09 11:30:20;;;;;;;;;;;29.70;50.30;;;;;;5004849;28;20015;-73
2023/07/09 11:32:47;;;;;;;;;;;29.80;50.00;;;;;;4988084;28;19950;-73
2023/07/09 11:35:21;;;;;;;;;;;29.90;49.80;;;;;;4999560;28;19933;-74
2023/07/09 11:37:47;;;;;;;;;;;29.90;50.00;;;;;;4989354;28;19953;-74
2023/07/09 11:40:15;;;;;;;;;;;30.00;49.30;;;;;;4991727;28;19980;-75
2023/07/09 11:42:48;;;;;;;;;;;30.10;49.10;;;;;;4988278;28;20020;-73
2023/07/09 11:45:15;;;;;;;;;;;30.10;49.00;;;;;;4990161;28;20431;-75
2023/07/09 11:47:43;;;;;;;;;;;30.20;48.80;;;;;;5004512;28;20292;-74
2023/07/09 11:50:16;;;;;;;;;;;30.30;48.50;;;;;;5003476;28;20288;-74
2023/07/09 11:52:48;;;;;;;;;;;30.30;48.10;;;;;;5005667;28;19933;-74
2023/07/09 11:55:23;;;;;;;;;;;30.40;47.80;;;;;;5002655;28;19940;-74
2023/07/09 11:57:53;;;;;;;;;;;30.50;47.60;;;;;;5003170;28;19929;-74
2023/07/09 12:00:19;;;;;;;;;;;30.60;47.40;;;;;;5002435;28;19930;-73
2023/07/09 12:02:46;;;;;;;;;;;30.70;47.10;;;;;;4984833;28;20440;-74
2023/07/09 12:05:13;;;;;;;;;;;30.70;46.60;;;;;;4985484;28;19953;-74
2023/07/09 12:07:40;;;;;;;;;;;30.80;45.20;;;;;;4981808;28;20403;-74
2023/07/09 12:10:18;;;;;;;;;;;30.80;45.20;;;;;;4989137;28;19933;-74
2023/07/09 12:12:45;;;;;;;;;;;30.90;45.30;;;;;;4984112;28;19937;-74
2023/07/09 12:15:16;;;;;;;;;;;31.00;45.30;;;;;;4980889;28;19930;-75
2023/07/09 12:17:43;;;;;;;;;;;31.10;45.10;;;;;;4985244;28;20016;-74
2023/07/09 12:20:10;;;;;;;;;;;31.10;44.80;;;;;;4985800;28;20319;-74
2023/07/09 12:22:37;;;;;;;;;;;31.20;44.90;;;;;;4983981;28;19930;-74
2023/07/09 12:25:06;;;;;;;;;;;31.30;44.90;;;;;;4983842;28;19984;-74
2023/07/09 12:27:37;;;;;;;;;;;31.30;45.30;;;;;;4986014;28;19938;-74
2023/07/09 12:30:04;;;;;;;;;;;31.40;44.70;;;;;;4985872;28;20487;-74
2023/07/09 12:32:30;;;;;;;;;;;31.40;44.60;;;;;;5005691;28;19929;-74
2023/07/09 12:34:57;;;;;;;;;;;31.50;44.60;;;;;;4997804;28;19952;-74
2023/07/09 12:37:25;;;;;;;;;;;31.60;44.60;;;;;;5002845;28;19984;-74
2023/07/09 12:39:52;;;;;;;;;;;31.60;44.50;;;;;;5002708;28;19980;-74
2023/07/09 12:42:20;;;;;;;;;;;31.70;44.50;;;;;;5006216;28;19984;-74
2023/07/09 12:44:48;;;;;;;;;;;31.80;44.50;;;;;;5004060;28;20456;-74
2023/07/09 12:47:15;;;;;;;;;;;31.80;44.30;;;;;;5009576;28;19968;-74
2023/07/09 12:49:43;;;;;;;;;;;31.80;44.00;;;;;;5001162;28;19933;-74
2023/07/09 12:52:19;;;;;;;;;;;31.90;43.90;;;;;;5002251;28;19934;-74
2023/07/09 12:54:52;;;;;;;;;;;32.00;43.80;;;;;;5004052;28;20013;-74
2023/07/09 12:57:19;;;;;;;;;;;32.00;43.80;;;;;;5011800;28;19933;-74
2023/07/09 12:59:46;;;;;;;;;;;32.10;43.30;;;;;;5005514;28;19941;-73
2023/07/09 13:02:18;;;;;;;;;;;32.10;43.20;;;;;;4996729;28;19980;-74
2023/07/09 13:04:44;;;;;;;;;;;32.20;43.30;;;;;;5004035;28;19984;-74
2023/07/09 13:07:28;;;;;;;;;;;32.20;43.10;;;;;;5008915;28;19929;-74
2023/07/09 13:09:55;;;;;;;;;;;32.30;43.10;;;;;;5004543;28;19984;-74
2023/07/09 13:12:28;;;;;;;;;;;32.30;43.00;;;;;;4999015;28;20277;-73
2023/07/09 13:14:55;;;;;;;;;;;32.40;42.70;;;;;;5003227;28;19929;-73
2023/07/09 13:17:23;;;;;;;;;;;32.50;42.40;;;;;;4996469;28;19929;-74
2023/07/09 13:19:50;;;;;;;;;;;32.50;42.20;;;;;;5002814;28;19931;-74
2023/07/09 13:22:18;;;;;;;;;;;32.50;42.10;;;;;;4996144;28;19929;-74
2023/07/09 13:24:45;;;;;;;;;;;32.60;42.20;;;;;;5003919;28;19936;-74
2023/07/09 13:27:13;;;;;;;;;;;32.60;42.20;;;;;;5003040;28;19933;-73
2023/07/09 13:29:40;;;;;;;;;;;32.70;42.20;;;;;;5006713;28;20403;-74
2023/07/09 13:32:09;;;;;;;;;;;32.70;42.10;;;;;;5005304;28;20429;-75
2023/07/09 13:34:39;;;;;;;;;;;32.80;41.90;;;;;;5003722;28;19930;-74
2023/07/09 13:37:05;;;;;;;;;;;32.80;41.90;;;;;;5006754;28;20012;-74
2023/07/09 13:39:32;;;;;;;;;;;32.90;41.90;;;;;;5007476;28;19998;-74
2023/07/09 13:41:59;;;;;;;;;;;32.90;41.70;;;;;;5007010;28;19972;-74
2023/07/09 13:44:26;;;;;;;;;;;32.90;41.80;;;;;;5008157;28;19940;-74
2023/07/09 13:46:53;;;;;;;;;;;32.90;42.50;;;;;;5007749;28;20016;-74
2023/07/09 13:49:21;;;;;;;;;;;33.00;41.90;;;;;;5009052;28;19930;-73
2023/07/09 13:51:50;;;;;;;;;;;33.10;41.80;;;;;;5006101;28;19976;-73
2023/07/09 13:54:18;;;;;;;;;;;33.10;41.70;;;;;;5008433;28;20307;-74
2023/07/09 13:56:45;;;;;;;;;;;33.20;41.60;;;;;;5009479;28;19929;-75
2023/07/09 13:59:13;;;;;;;;;;;33.20;41.10;;;;;;5008016;28;19929;-74
2023/07/09 14:01:40;;;;;;;;;;;33.30;41.00;;;;;;5008321;28;19929;-73
2023/07/09 14:04:06;;;;;;;;;;;33.30;40.90;;;;;;5007739;28;19936;-73
2023/07/09 14:06:33;;;;;;;;;;;33.30;40.80;;;;;;5005402;28;19983;-74
2023/07/09 14:09:02;;;;;;;;;;;33.40;40.60;;;;;;5008464;28;19929;-74
2023/07/09 14:11:30;;;;;;;;;;;33.40;40.40;;;;;;5009571;28;20545;-74
2023/07/09 14:13:56;;;;;;;;;;;33.50;40.50;;;;;;5000234;28;19929;-74
2023/07/09 14:16:23;;;;;;;;;;;33.50;40.50;;;;;;5004392;28;20532;-74
2023/07/09 14:18:50;;;;;;;;;;;33.50;40.50;;;;;;5007515;28;20824;-75
2023/07/09 14:21:18;;;;;;;;;;;33.50;40.50;;;;;;5007236;28;19937;-74